sensor_id;sensor_type;location;lat;lon;timestamp;pressure;altitude;pressure_sealevel;temperature;humidity
46724;BME280;32463;48.298;11.620;2022-09-03T00:02:00;96107.28;;;14.24;100.00
46724;BME280;32463;48.298;11.620;2022-09-03T00:04:38;96108.53;;;14.28;100.00
46724;BME280;32463;48.298;11.620;2022-09-03T00:07:15;96105.84;;;14.21;100.00
46724;BME280;32463;48.298;11.620;2022-09-03T00:09:47;96104.44;;;14.19;100.00
46724;BME280;32463;48.298;11.620;2022-09-03T00:12:23;96105.59;;;14.16;100.00
46724;BME280;32463;48.298;11.620;2022-09-03T00:15:03;96092.88;;;14.28;100.00
46724;BME280;32463;48.298;11.620;2022-09-03T00:17:37;96105.66;;;14.23;100.00
46724;BME280;32463;48.298;11.620;2022-09-03T00:20:10;96106.38;;;14.31;100.00
46724;BME280;32463;48.298;11.620;2022-09-03T00:22:41;96106.53;;;14.30;100.00
46724;BME280;32463;48.298;11.620;2022-09-03T00:25:11;96109.63;;;14.40;100.00
46724;BME280;32463;48.298;11.620;2022-09-03T00:27:41;96112.22;;;14.40;100.00
46724;BME280;32463;48.298;11.620;2022-09-03T00:30:12;96113.13;;;14.26;100.00
46724;BME280;32463;48.298;11.620;2022-09-03T00:37:51;96102.44;;;14.21;100.00
46724;BME280;32463;48.298;11.620;2022-09-03T00:46:25;96108.03;;;14.18;100.00
46724;BME280;32463;48.298;11.620;2022-09-03T01:00:17;96103.56;;;14.11;100.00
46724;BME280;32463;48.298;11.620;2022-09-03T01:13:21;96090.78;;;14.16;100.00
46724;BME280;32463;48.298;11.620;2022-09-03T01:35:08;96104.81;;;13.79;100.00
46724;BME280;32463;48.298;11.620;2022-09-03T01:38:04;96105.63;;;13.80;100.00
46724;BME280;32463;48.298;11.620;2022-09-03T01:40:43;96095.22;;;13.80;100.00
46724;BME280;32463;48.298;11.620;2022-09-03T01:43:29;96104.19;;;13.77;100.00
46724;BME280;32463;48.298;11.620;2022-09-03T01:51:39;96095.81;;;13.61;100.00
46724;BME280;32463;48.298;11.620;2022-09-03T02:05:08;96104.25;;;13.63;100.00
46724;BME280;32463;48.298;11.620;2022-09-03T02:07:47;96110.53;;;13.68;100.00
46724;BME280;32463;48.298;11.620;2022-09-03T02:10:20;96100.91;;;13.69;100.00
46724;BME280;32463;48.298;11.620;2022-09-03T02:12:56;96099.41;;;13.60;100.00
46724;BME280;32463;48.298;11.620;2022-09-03T02:15:25;96095.00;;;13.60;100.00
46724;BME280;32463;48.298;11.620;2022-09-03T02:17:55;96096.72;;;13.53;100.00
46724;BME280;32463;48.298;11.620;2022-09-03T02:20:26;96084.72;;;13.37;100.00
46724;BME280;32463;48.298;11.620;2022-09-03T02:22:55;96087.59;;;13.42;100.00
46724;BME280;32463;48.298;11.620;2022-09-03T02:25:24;96083.56;;;13.25;100.00
46724;BME280;32463;48.298;11.620;2022-09-03T02:27:54;96087.06;;;13.32;100.00
46724;BME280;32463;48.298;11.620;2022-09-03T02:30:20;96080.94;;;13.25;100.00
46724;BME280;32463;48.298;11.620;2022-09-03T02:32:46;96086.53;;;13.22;100.00
46724;BME280;32463;48.298;11.620;2022-09-03T02:35:13;96091.19;;;13.12;100.00
46724;BME280;32463;48.298;11.620;2022-09-03T02:37:39;96094.41;;;13.14;100.00
46724;BME280;32463;48.298;11.620;2022-09-03T02:40:06;96099.00;;;13.12;100.00
46724;BME280;32463;48.298;11.620;2022-09-03T02:42:34;96095.13;;;13.08;100.00
46724;BME280;32463;48.298;11.620;2022-09-03T02:47:37;96094.22;;;13.01;100.00
46724;BME280;32463;48.298;11.620;2022-09-03T02:50:06;96101.84;;;13.02;100.00
46724;BME280;32463;48.298;11.620;2022-09-03T02:52:32;96103.66;;;13.02;100.00
46724;BME280;32463;48.298;11.620;2022-09-03T02:54:59;96097.81;;;13.00;100.00
46724;BME280;32463;48.298;11.620;2022-09-03T02:57:25;96096.19;;;12.99;100.00
46724;BME280;32463;48.298;11.620;2022-09-03T02:59:53;96091.97;;;12.98;100.00
46724;BME280;32463;48.298;11.620;2022-09-03T03:02:19;96093.31;;;12.94;100.00
46724;BME280;32463;48.298;11.620;2022-09-03T03:04:46;96094.47;;;12.91;100.00
46724;BME280;32463;48.298;11.620;2022-09-03T03:07:12;96095.75;;;12.80;100.00
46724;BME280;32463;48.298;11.620;2022-09-03T03:09:39;96096.56;;;12.81;100.00
46724;BME280;32463;48.298;11.620;2022-09-03T03:12:05;96086.69;;;12.76;100.00
46724;BME280;32463;48.298;11.620;2022-09-03T03:14:32;96094.56;;;12.68;100.00
46724;BME280;32463;48.298;11.620;2022-09-03T03:16:59;96097.56;;;12.57;100.00
46724;BME280;32463;48.298;11.620;2022-09-03T03:19:25;96098.84;;;12.61;100.00
46724;BME280;32463;48.298;11.620;2022-09-03T03:21:52;96090.13;;;12.54;100.00
46724;BME280;32463;48.298;11.620;2022-09-03T03:24:18;96094.00;;;12.58;100.00
46724;BME280;32463;48.298;11.620;2022-09-03T03:26:45;96101.16;;;12.56;100.00
46724;BME280;32463;48.298;11.620;2022-09-03T03:29:14;96094.81;;;12.59;100.00
46724;BME280;32463;48.298;11.620;2022-09-03T03:31:43;96102.13;;;12.55;100.00
46724;BME280;32463;48.298;11.620;2022-09-03T03:34:10;96104.56;;;12.57;100.00
46724;BME280;32463;48.298;11.620;2022-09-03T03:36:37;96101.44;;;12.46;100.00
46724;BME280;32463;48.298;11.620;2022-09-03T03:39:04;96099.69;;;12.39;100.00
46724;BME280;32463;48.298;11.620;2022-09-03T03:41:33;96096.81;;;12.34;100.00
46724;BME280;32463;48.298;11.620;2022-09-03T03:44:02;96096.22;;;12.24;100.00
46724;BME280;32463;48.298;11.620;2022-09-03T03:46:34;96095.81;;;12.35;100.00
46724;BME280;32463;48.298;11.620;2022-09-03T03:49:02;96100.84;;;12.36;100.00
46724;BME280;32463;48.298;11.620;2022-09-03T03:51:31;96111.72;;;12.40;100.00
46724;BME280;32463;48.298;11.620;2022-09-03T03:53:58;96105.25;;;12.36;100.00
46724;BME280;32463;48.298;11.620;2022-09-03T03:56:25;96103.28;;;12.38;100.00
46724;BME280;32463;48.298;11.620;2022-09-03T03:58:52;96091.31;;;12.29;100.00
46724;BME280;32463;48.298;11.620;2022-09-03T04:01:24;96091.03;;;12.24;100.00
46724;BME280;32463;48.298;11.620;2022-09-03T04:03:51;96099.13;;;12.29;100.00
46724;BME280;32463;48.298;11.620;2022-09-03T04:06:20;96083.88;;;12.26;100.00
46724;BME280;32463;48.298;11.620;2022-09-03T04:08:47;96083.22;;;12.24;100.00
46724;BME280;32463;48.298;11.620;2022-09-03T04:11:18;96088.09;;;12.27;100.00
46724;BME280;32463;48.298;11.620;2022-09-03T04:13:46;96084.41;;;12.21;100.00
46724;BME280;32463;48.298;11.620;2022-09-03T04:16:15;96097.03;;;12.24;100.00
46724;BME280;32463;48.298;11.620;2022-09-03T04:18:42;96090.13;;;12.17;100.00
46724;BME280;32463;48.298;11.620;2022-09-03T04:21:11;96096.53;;;12.29;100.00
46724;BME280;32463;48.298;11.620;2022-09-03T04:23:41;96095.72;;;12.28;100.00
46724;BME280;32463;48.298;11.620;2022-09-03T04:26:10;96097.84;;;12.25;100.00
46724;BME280;32463;48.298;11.620;2022-09-03T04:28:37;96105.56;;;12.18;100.00
46724;BME280;32463;48.298;11.620;2022-09-03T04:31:10;96108.88;;;12.27;100.00
46724;BME280;32463;48.298;11.620;2022-09-03T04:33:38;96113.69;;;12.38;100.00
46724;BME280;32463;48.298;11.620;2022-09-03T04:38:40;96116.03;;;12.25;100.00
46724;BME280;32463;48.298;11.620;2022-09-03T04:41:08;96116.84;;;12.25;100.00
46724;BME280;32463;48.298;11.620;2022-09-03T04:43:35;96128.13;;;12.40;100.00
46724;BME280;32463;48.298;11.620;2022-09-03T04:46:04;96129.38;;;12.44;100.00
46724;BME280;32463;48.298;11.620;2022-09-03T04:48:33;96129.28;;;12.38;100.00
46724;BME280;32463;48.298;11.620;2022-09-03T04:51:11;96123.94;;;12.54;100.00
46724;BME280;32463;48.298;11.620;2022-09-03T04:53:44;96138.13;;;12.52;100.00
46724;BME280;32463;48.298;11.620;2022-09-03T04:56:17;96137.94;;;12.53;100.00
46724;BME280;32463;48.298;11.620;2022-09-03T04:58:44;96121.47;;;12.75;100.00
46724;BME280;32463;48.298;11.620;2022-09-03T05:01:16;96132.81;;;12.82;100.00
46724;BME280;32463;48.298;11.620;2022-09-03T05:03:43;96132.06;;;12.89;100.00
46724;BME280;32463;48.298;11.620;2022-09-03T05:06:10;96126.34;;;12.78;100.00
46724;BME280;32463;48.298;11.620;2022-09-03T05:08:37;96134.78;;;12.95;100.00
46724;BME280;32463;48.298;11.620;2022-09-03T05:11:05;96151.47;;;13.01;100.00
46724;BME280;32463;48.298;11.620;2022-09-03T05:13:33;96151.53;;;12.93;100.00
46724;BME280;32463;48.298;11.620;2022-09-03T05:16:03;96151.31;;;13.17;100.00
46724;BME280;32463;48.298;11.620;2022-09-03T05:18:30;96146.41;;;13.22;100.00
46724;BME280;32463;48.298;11.620;2022-09-03T05:20:59;96145.06;;;13.26;100.00
46724;BME280;32463;48.298;11.620;2022-09-03T05:23:29;96155.19;;;13.36;100.00
46724;BME280;32463;48.298;11.620;2022-09-03T05:26:02;96153.75;;;13.48;100.00
46724;BME280;32463;48.298;11.620;2022-09-03T05:28:30;96156.91;;;13.43;100.00
46724;BME280;32463;48.298;11.620;2022-09-03T05:31:09;96168.03;;;13.37;100.00
46724;BME280;32463;48.298;11.620;2022-09-03T05:33:37;96166.06;;;13.39;100.00
46724;BME280;32463;48.298;11.620;2022-09-03T05:36:06;96161.28;;;13.58;100.00
46724;BME280;32463;48.298;11.620;2022-09-03T05:38:33;96156.72;;;13.60;100.00
46724;BME280;32463;48.298;11.620;2022-09-03T05:41:01;96167.03;;;13.68;100.00
46724;BME280;32463;48.298;11.620;2022-09-03T05:43:28;96174.22;;;13.66;100.00
46724;BME280;32463;48.298;11.620;2022-09-03T05:45:59;96178.41;;;13.81;100.00
46724;BME280;32463;48.298;11.620;2022-09-03T05:48:28;96172.88;;;13.70;100.00
46724;BME280;32463;48.298;11.620;2022-09-03T05:51:06;96181.06;;;13.67;100.00
46724;BME280;32463;48.298;11.620;2022-09-03T05:53:35;96185.63;;;13.65;100.00
46724;BME280;32463;48.298;11.620;2022-09-03T05:56:05;96171.56;;;13.95;100.00
46724;BME280;32463;48.298;11.620;2022-09-03T05:58:34;96178.56;;;14.31;100.00
46724;BME280;32463;48.298;11.620;2022-09-03T06:01:18;96177.94;;;14.29;100.00
46724;BME280;32463;48.298;11.620;2022-09-03T06:03:46;96161.06;;;14.25;100.00
46724;BME280;32463;48.298;11.620;2022-09-03T06:06:14;96162.88;;;14.45;100.00
46724;BME280;32463;48.298;11.620;2022-09-03T06:08:41;96168.91;;;14.10;100.00
46724;BME280;32463;48.298;11.620;2022-09-03T06:11:09;96169.72;;;14.10;100.00
46724;BME280;32463;48.298;11.620;2022-09-03T06:13:36;96167.88;;;14.26;100.00
46724;BME280;32463;48.298;11.620;2022-09-03T06:16:05;96167.25;;;14.24;100.00
46724;BME280;32463;48.298;11.620;2022-09-03T06:18:32;96171.69;;;14.08;100.00
46724;BME280;32463;48.298;11.620;2022-09-03T06:21:00;96168.28;;;14.08;100.00
46724;BME280;32463;48.298;11.620;2022-09-03T12:23:46;96076.28;;;28.73;41.56
46724;BME280;32463;48.298;11.620;2022-09-03T12:26:23;96077.56;;;29.63;39.58
46724;BME280;32463;48.298;11.620;2022-09-03T12:28:56;96076.69;;;30.47;37.78
46724;BME280;32463;48.298;11.620;2022-09-03T12:31:26;96066.38;;;31.06;36.10
46724;BME280;32463;48.298;11.620;2022-09-03T12:34:18;96070.47;;;30.33;37.82
46724;BME280;32463;48.298;11.620;2022-09-03T12:36:50;96060.88;;;30.13;37.45
46724;BME280;32463;48.298;11.620;2022-09-03T12:39:18;96062.81;;;30.45;38.55
46724;BME280;32463;48.298;11.620;2022-09-03T12:44:27;96060.66;;;31.26;35.74
46724;BME280;32463;48.298;11.620;2022-09-03T12:47:09;96057.31;;;31.75;34.02
46724;BME280;32463;48.298;11.620;2022-09-03T12:49:41;96060.00;;;32.11;33.24
46724;BME280;32463;48.298;11.620;2022-09-03T12:57:31;96043.47;;;32.76;32.69
46724;BME280;32463;48.298;11.620;2022-09-03T13:00:05;96046.94;;;33.30;31.67
46724;BME280;32463;48.298;11.620;2022-09-03T13:02:54;96047.03;;;33.65;32.01
46724;BME280;32463;48.298;11.620;2022-09-03T13:05:39;96041.75;;;34.68;29.37
46724;BME280;32463;48.298;11.620;2022-09-03T13:08:07;96040.50;;;33.09;31.38
46724;BME280;32463;48.298;11.620;2022-09-03T13:10:40;96039.56;;;32.83;31.59
46724;BME280;32463;48.298;11.620;2022-09-03T13:13:26;96023.94;;;33.64;30.04
46724;BME280;32463;48.298;11.620;2022-09-03T13:30:04;96028.66;;;36.97;25.28
46724;BME280;32463;48.298;11.620;2022-09-03T13:37:46;96047.75;;;32.55;31.47
46724;BME280;32463;48.298;11.620;2022-09-03T13:40:22;96045.16;;;31.23;34.05
46724;BME280;32463;48.298;11.620;2022-09-03T13:43:00;96045.47;;;30.05;35.77
46724;BME280;32463;48.298;11.620;2022-09-03T13:45:37;96049.00;;;29.34;37.66
46724;BME280;32463;48.298;11.620;2022-09-03T13:51:08;96058.97;;;27.13;41.53
46724;BME280;32463;48.298;11.620;2022-09-03T13:53:56;96060.03;;;26.21;44.41
